Andover, Connecticut
Current Conditions -  °F | °C
As of 7:52 AM on Sunday 23 Nov 2014 (Local Time) from KIJD Reporting Station
Overcast Overcast  
Wind Chill: 41°   Ceiling: 6000
Heat Index: 44°   Visibility: 10mi
Dew Point: 21°   Wind: 6mph
Humidity: 40%   Direction: 210°SSW
Pressure: 30.17"   Gusts: NA
Location:  41.74°N, 72.37°W
Report Text: KIJD 231252Z AUTO 21005KT 10SM BKN060 OVC080 07/M06 A3017 RMK AO2 SLP219 T00671061
Loading
Personal Weather Stations






























Interactive Weather Map New forecast layout! Learn more

10-Day Weather Forecast

Advertisements
Track Severe Weather on mobile